createdAt,value
2023-05-18T00:00:44.694Z,7.57
2023-05-18T00:01:44.678Z,7.52
2023-05-18T00:02:44.722Z,7.55
2023-05-18T00:03:44.926Z,7.46
2023-05-18T00:04:44.880Z,7.37
2023-05-18T00:05:44.622Z,7.27
2023-05-18T00:06:44.612Z,7.16
2023-05-18T00:07:45.484Z,7.03
2023-05-18T00:08:44.595Z,6.91
2023-05-18T00:09:44.577Z,6.78
2023-05-18T00:10:44.563Z,6.60
2023-05-18T00:11:44.553Z,6.40
2023-05-18T00:12:44.533Z,6.21
2023-05-18T00:13:44.524Z,6.00
2023-05-18T00:14:44.538Z,5.90
2023-05-18T00:15:44.490Z,5.75
2023-05-18T00:16:44.497Z,5.71
2023-05-18T00:17:44.470Z,5.56
2023-05-18T00:18:44.480Z,5.47
2023-05-18T00:19:44.437Z,5.38
2023-05-18T00:20:44.422Z,5.32
2023-05-18T00:21:44.405Z,5.24
2023-05-18T00:22:44.405Z,5.16
2023-05-18T00:23:44.383Z,5.11
2023-05-18T00:24:44.370Z,5.08
2023-05-18T00:25:44.357Z,5.11
2023-05-18T00:26:44.348Z,5.11
2023-05-18T00:27:44.351Z,5.03
2023-05-18T00:28:44.328Z,5.03
2023-05-18T00:29:44.322Z,5.16
2023-05-18T00:30:44.330Z,5.23
2023-05-18T00:31:44.356Z,5.24
2023-05-18T00:32:44.334Z,5.20
2023-05-18T00:33:44.269Z,5.09
2023-05-18T00:34:44.262Z,5.03
2023-05-18T00:35:44.242Z,4.90
2023-05-18T00:36:44.227Z,4.88
2023-05-18T00:37:44.215Z,4.84
2023-05-18T00:38:44.203Z,4.84
2023-05-18T00:39:44.191Z,5.03
2023-05-18T00:40:44.194Z,5.34
2023-05-18T00:41:44.166Z,5.41
2023-05-18T00:42:44.154Z,5.58
2023-05-18T00:43:44.152Z,5.65
2023-05-18T00:44:44.137Z,5.72
2023-05-18T00:45:44.169Z,5.81
2023-05-18T00:46:44.141Z,5.93
2023-05-18T00:47:44.120Z,6.01
2023-05-18T00:48:44.103Z,6.06
2023-05-18T00:49:44.076Z,6.15
2023-05-18T00:50:44.059Z,6.19
2023-05-18T00:51:44.047Z,6.17
2023-05-18T00:52:44.036Z,6.17
2023-05-18T00:53:44.370Z,6.14
2023-05-18T00:54:44.016Z,6.12
2023-05-18T00:55:44.009Z,6.06
2023-05-18T00:56:43.992Z,6.14
2023-05-18T00:57:43.972Z,6.18
2023-05-18T00:58:43.960Z,6.17
2023-05-18T00:59:43.959Z,6.06
2023-05-18T01:00:43.984Z,5.97
2023-05-18T01:01:44.225Z,5.86
2023-05-18T01:02:44.048Z,5.86
2023-05-18T01:03:43.898Z,5.85
2023-05-18T01:04:43.891Z,5.79
2023-05-18T01:05:43.874Z,5.78
2023-05-18T01:06:44.029Z,5.78
2023-05-18T01:07:43.928Z,5.71
2023-05-18T01:08:43.842Z,5.64
2023-05-18T01:09:43.846Z,5.57
2023-05-18T01:10:43.841Z,5.61
2023-05-18T01:11:43.802Z,5.61
2023-05-18T01:12:43.791Z,5.63
2023-05-18T01:13:43.781Z,5.47
2023-05-18T01:14:43.768Z,5.44
2023-05-18T01:15:43.755Z,5.37
2023-05-18T01:16:43.773Z,5.21
2023-05-18T01:17:43.801Z,5.19
2023-05-18T01:18:43.889Z,5.12
2023-05-18T01:19:43.708Z,5.01
2023-05-18T01:20:43.693Z,4.93
2023-05-18T01:21:43.683Z,4.85
2023-05-18T01:22:43.670Z,4.75
2023-05-18T01:23:43.655Z,4.81
2023-05-18T01:24:43.649Z,4.75
2023-05-18T01:25:43.632Z,4.83
2023-05-18T01:26:43.618Z,4.91
2023-05-18T01:27:43.605Z,4.95
2023-05-18T01:28:43.595Z,5.01
2023-05-18T01:29:43.575Z,5.20
2023-05-18T01:30:43.611Z,5.37
2023-05-18T01:31:43.555Z,5.44
2023-05-18T01:32:43.639Z,5.42
2023-05-18T01:33:43.538Z,5.35
2023-05-18T01:34:43.544Z,5.29
2023-05-18T01:35:43.508Z,5.32
2023-05-18T01:36:43.489Z,5.29
2023-05-18T01:37:43.478Z,5.26
2023-05-18T01:38:44.448Z,5.23
2023-05-18T01:39:43.456Z,5.17
2023-05-18T01:40:43.437Z,5.21
2023-05-18T01:41:43.453Z,5.23
2023-05-18T01:42:43.423Z,5.21
2023-05-18T01:43:43.400Z,5.11
2023-05-18T01:44:43.392Z,5.09
2023-05-18T01:45:43.380Z,4.99
2023-05-18T01:46:43.635Z,4.98
2023-05-18T01:47:43.381Z,5.14
2023-05-18T01:48:43.341Z,5.24
2023-05-18T01:49:43.362Z,5.34
2023-05-18T01:50:43.356Z,5.35
2023-05-18T01:51:43.304Z,5.32
2023-05-18T01:52:43.305Z,5.38
2023-05-18T01:53:43.271Z,5.44
2023-05-18T01:54:43.273Z,5.42
2023-05-18T01:56:43.237Z,5.24
2023-05-18T01:57:43.233Z,5.11
2023-05-18T01:58:43.212Z,5.09
2023-05-18T01:59:43.211Z,5.08
2023-05-18T02:00:43.187Z,5.06
2023-05-18T02:01:43.221Z,5.05
2023-05-18T02:02:43.332Z,4.91
2023-05-18T02:03:43.323Z,4.84
2023-05-18T02:04:43.170Z,4.73
2023-05-18T02:05:43.127Z,4.73
2023-05-18T02:06:43.129Z,4.87
2023-05-18T02:07:43.096Z,4.93
2023-05-18T02:08:43.089Z,4.85
2023-05-18T02:09:43.071Z,4.83
2023-05-18T02:10:43.064Z,4.75
2023-05-18T02:11:43.052Z,4.67
2023-05-18T02:12:43.034Z,4.52
2023-05-18T02:13:43.025Z,4.45
2023-05-18T02:14:43.008Z,4.34
2023-05-18T02:15:42.994Z,4.24
2023-05-18T02:16:43.047Z,4.26
2023-05-18T02:17:43.031Z,4.23
2023-05-18T02:18:43.016Z,4.20
2023-05-18T02:19:42.945Z,4.27
2023-05-18T02:20:42.977Z,4.44
2023-05-18T02:21:42.923Z,4.52
2023-05-18T02:22:42.989Z,4.55
2023-05-18T02:23:42.899Z,4.47
2023-05-18T02:24:42.879Z,4.48
2023-05-18T02:25:42.864Z,4.47
2023-05-18T02:26:42.853Z,4.51
2023-05-18T02:27:42.845Z,4.50
2023-05-18T02:28:42.833Z,4.47
2023-05-18T02:29:42.821Z,4.37
2023-05-18T02:30:42.811Z,4.34
2023-05-18T02:31:42.861Z,4.29
2023-05-18T02:32:42.866Z,4.24
2023-05-18T02:33:42.760Z,4.23
2023-05-18T02:34:42.752Z,4.23
2023-05-18T02:35:42.740Z,4.23
2023-05-18T02:36:42.794Z,4.23
2023-05-18T02:37:42.709Z,4.20
2023-05-18T02:38:42.737Z,4.15
2023-05-18T02:39:42.683Z,4.01
2023-05-18T02:40:42.674Z,3.99
2023-05-18T02:41:42.663Z,3.85
2023-05-18T02:42:42.649Z,3.83
2023-05-18T02:43:42.629Z,3.85
2023-05-18T02:44:42.620Z,3.83
2023-05-18T02:45:42.631Z,3.96
2023-05-18T02:46:42.596Z,4.11
2023-05-18T02:47:42.608Z,4.15
2023-05-18T02:48:42.581Z,4.12
2023-05-18T02:49:42.557Z,4.11
2023-05-18T02:50:42.547Z,4.11
2023-05-18T02:51:42.537Z,3.96
2023-05-18T02:52:42.522Z,3.78
2023-05-18T02:53:42.508Z,3.77
2023-05-18T02:54:42.531Z,3.75
2023-05-18T02:55:42.481Z,3.78
2023-05-18T02:56:42.466Z,3.78
2023-05-18T02:57:42.483Z,3.79
2023-05-18T02:58:42.455Z,3.79
2023-05-18T02:59:42.430Z,3.85
2023-05-18T03:00:42.418Z,3.90
2023-05-18T03:01:42.541Z,4.01
2023-05-18T03:02:42.455Z,4.03
2023-05-18T03:03:42.688Z,4.11
2023-05-18T03:04:42.389Z,4.20
2023-05-18T03:05:42.360Z,4.34
2023-05-18T03:06:42.346Z,4.40
2023-05-18T03:07:42.336Z,4.40
2023-05-18T03:08:42.323Z,4.42
2023-05-18T03:09:42.318Z,4.45
2023-05-18T03:10:42.321Z,4.42
2023-05-18T03:11:42.284Z,4.44
2023-05-18T03:12:42.275Z,4.37
2023-05-18T03:13:42.260Z,4.32
2023-05-18T03:14:42.237Z,4.30
2023-05-18T03:15:42.229Z,4.20
2023-05-18T03:16:42.242Z,4.07
2023-05-18T03:17:42.246Z,4.04
2023-05-18T03:18:42.258Z,3.90
2023-05-18T03:19:42.191Z,3.79
2023-05-18T03:20:42.170Z,3.87
2023-05-18T03:21:42.156Z,3.86
2023-05-18T03:22:42.139Z,3.75
2023-05-18T03:23:42.141Z,3.71
2023-05-18T03:24:42.116Z,3.67
2023-05-18T03:25:42.115Z,3.67
2023-05-18T03:26:42.118Z,3.72
2023-05-18T03:27:42.076Z,3.77
2023-05-18T03:28:42.064Z,3.77
2023-05-18T03:29:42.060Z,3.79
2023-05-18T03:30:42.071Z,3.67
2023-05-18T03:31:42.136Z,3.59
2023-05-18T03:32:42.057Z,3.59
2023-05-18T03:33:42.005Z,3.51
2023-05-18T03:34:41.996Z,3.41
2023-05-18T03:35:41.975Z,3.33
2023-05-18T03:36:41.963Z,3.31
2023-05-18T03:37:41.953Z,3.42
2023-05-18T03:38:41.936Z,3.59
2023-05-18T03:39:41.929Z,3.59
2023-05-18T03:40:41.908Z,3.54
2023-05-18T03:41:41.903Z,3.59
2023-05-18T03:42:41.924Z,3.50
2023-05-18T03:43:41.874Z,3.54
2023-05-18T03:44:41.872Z,3.54
2023-05-18T03:45:41.860Z,3.54
2023-05-18T03:46:41.973Z,3.60
2023-05-18T03:47:41.870Z,3.82
2023-05-18T03:48:41.814Z,3.95
2023-05-18T03:49:41.799Z,3.97
2023-05-18T03:50:41.802Z,4.01
2023-05-18T03:51:41.799Z,4.04
2023-05-18T03:52:41.761Z,4.03
2023-05-18T03:53:41.756Z,3.96
2023-05-18T03:54:41.735Z,3.90
2023-05-18T03:55:41.722Z,3.86
2023-05-18T03:56:41.708Z,3.87
2023-05-18T03:57:41.718Z,3.86
2023-05-18T03:58:41.813Z,3.86
2023-05-18T03:59:41.672Z,3.79
2023-05-18T04:00:41.660Z,3.74
2023-05-18T04:01:41.698Z,3.77
2023-05-18T04:02:41.663Z,3.75
2023-05-18T04:03:41.758Z,3.79
2023-05-18T04:04:41.607Z,3.72
2023-05-18T04:05:41.601Z,3.77
2023-05-18T04:06:41.578Z,3.90
2023-05-18T04:07:41.570Z,3.99
2023-05-18T04:08:41.556Z,4.14
2023-05-18T04:09:41.545Z,4.34
2023-05-18T04:10:41.529Z,4.45
2023-05-18T04:11:41.522Z,4.54
2023-05-18T04:12:41.509Z,4.63
2023-05-18T04:13:41.497Z,4.63
2023-05-18T04:14:41.506Z,4.70
2023-05-18T04:15:41.472Z,4.73
2023-05-18T04:16:41.509Z,4.77
2023-05-18T04:17:41.481Z,4.80
2023-05-18T04:18:41.541Z,4.87
2023-05-18T04:19:41.420Z,4.87
2023-05-18T04:20:41.412Z,4.91
2023-05-18T04:21:41.398Z,4.91
2023-05-18T04:22:41.380Z,4.95
2023-05-18T04:23:41.372Z,4.95
2023-05-18T04:24:41.387Z,5.05
2023-05-18T04:25:41.349Z,5.06
2023-05-18T04:26:41.353Z,5.12
2023-05-18T04:27:41.321Z,5.14
2023-05-18T04:28:41.316Z,5.21
2023-05-18T04:29:41.300Z,5.27
2023-05-18T04:30:41.304Z,5.29
2023-05-18T04:31:41.302Z,5.37
2023-05-18T04:32:41.303Z,5.34
2023-05-18T04:33:41.244Z,5.23
2023-05-18T04:34:41.248Z,5.34
2023-05-18T04:35:41.222Z,5.39
2023-05-18T04:36:41.201Z,5.42
2023-05-18T04:37:41.208Z,5.54
2023-05-18T04:38:41.214Z,5.63
2023-05-18T04:39:41.165Z,5.72
2023-05-18T04:40:41.153Z,5.89
2023-05-18T04:41:41.138Z,5.93
2023-05-18T04:42:41.124Z,6.17
2023-05-18T04:43:41.112Z,6.39
2023-05-18T04:44:41.103Z,6.32
2023-05-18T04:45:41.133Z,6.24
2023-05-18T04:46:41.098Z,6.32
2023-05-18T04:47:41.078Z,6.50
2023-05-18T04:48:41.061Z,6.60
2023-05-18T04:49:41.052Z,6.87
2023-05-18T04:50:41.023Z,7.17
2023-05-18T04:51:41.011Z,7.28
2023-05-18T04:52:40.999Z,7.39
2023-05-18T04:53:40.989Z,7.55
2023-05-18T04:54:40.972Z,7.60
2023-05-18T04:55:40.959Z,7.48
2023-05-18T04:56:40.944Z,7.43
2023-05-18T04:57:40.936Z,7.52
2023-05-18T04:58:40.919Z,7.76
2023-05-18T04:59:40.907Z,7.78
2023-05-18T05:00:40.889Z,7.88
2023-05-18T05:01:40.981Z,8.03
2023-05-18T05:02:40.932Z,7.99
2023-05-18T05:03:41.059Z,7.99
2023-05-18T05:04:40.838Z,7.94
2023-05-18T05:05:40.839Z,8.00
2023-05-18T05:06:40.823Z,8.03
2023-05-18T05:07:40.807Z,7.67
2023-05-18T05:08:40.786Z,7.70
2023-05-18T05:09:40.774Z,7.74
2023-05-18T05:10:40.781Z,7.79
2023-05-18T05:11:40.750Z,7.71
2023-05-18T05:12:40.733Z,7.68
2023-05-18T05:13:40.723Z,7.74
2023-05-18T05:14:40.709Z,7.82
2023-05-18T05:16:40.678Z,8.00
2023-05-18T05:17:40.715Z,8.21
2023-05-18T05:18:40.704Z,8.43
2023-05-18T05:19:40.643Z,8.68
2023-05-18T05:20:40.649Z,9.07
2023-05-18T05:21:40.636Z,9.17
2023-05-18T05:22:40.703Z,9.31
2023-05-18T05:23:40.597Z,9.50
2023-05-18T05:24:40.578Z,9.71
2023-05-18T05:25:40.571Z,10.09
2023-05-18T05:26:40.553Z,10.44
2023-05-18T05:27:40.538Z,10.75
2023-05-18T05:28:40.530Z,10.85
2023-05-18T05:29:40.517Z,10.72
2023-05-18T05:30:40.501Z,10.66
2023-05-18T05:31:40.536Z,10.51
2023-05-18T05:32:40.498Z,10.52
2023-05-18T05:33:40.467Z,10.77
2023-05-18T05:34:40.518Z,10.99
2023-05-18T05:35:40.442Z,11.13
2023-05-18T05:36:40.424Z,11.33
2023-05-18T05:37:40.415Z,11.60
2023-05-18T05:38:40.397Z,11.80
2023-05-18T05:39:40.386Z,12.09
2023-05-18T05:40:40.368Z,12.30
2023-05-18T05:41:40.362Z,12.23
2023-05-18T05:42:40.348Z,11.97
2023-05-18T05:43:40.337Z,12.12
2023-05-18T05:44:40.324Z,12.13
2023-05-18T05:45:40.311Z,12.04
2023-05-18T05:46:40.371Z,12.41
2023-05-18T05:47:40.322Z,12.75
2023-05-18T05:48:40.297Z,13.08
2023-05-18T05:49:40.261Z,13.43
2023-05-18T05:50:40.275Z,13.66
2023-05-18T05:51:40.248Z,13.58
2023-05-18T05:52:40.219Z,13.58
2023-05-18T05:53:40.202Z,13.84
2023-05-18T05:54:40.196Z,14.01
2023-05-18T05:55:40.178Z,14.21
2023-05-18T05:56:40.164Z,14.02
2023-05-18T05:57:40.154Z,14.27
2023-05-18T05:58:40.140Z,14.40
2023-05-18T05:59:40.127Z,14.33
2023-05-18T06:00:40.118Z,14.24
2023-05-18T06:01:40.134Z,14.28
2023-05-18T06:02:40.205Z,14.24
2023-05-18T06:03:40.227Z,14.22
2023-05-18T06:04:40.063Z,14.17
2023-05-18T06:05:40.064Z,14.27
2023-05-18T06:06:40.059Z,14.58
2023-05-18T06:07:40.022Z,14.91
2023-05-18T06:08:40.012Z,15.28
2023-05-18T06:09:39.997Z,14.94
2023-05-18T06:10:39.995Z,14.98
2023-05-18T06:11:39.970Z,14.85
2023-05-18T06:12:39.956Z,15.05
2023-05-18T06:13:39.951Z,14.75
2023-05-18T06:14:39.929Z,14.82
2023-05-18T06:15:39.926Z,15.00
2023-05-18T06:16:39.948Z,15.35
2023-05-18T06:17:39.916Z,15.68
2023-05-18T06:18:39.915Z,16.09
2023-05-18T06:19:39.868Z,16.62
2023-05-18T06:20:39.852Z,16.49
2023-05-18T06:21:39.840Z,16.40
2023-05-18T06:22:39.857Z,16.02
2023-05-18T06:23:41.902Z,16.02
2023-05-18T06:24:39.805Z,16.17
2023-05-18T06:25:39.791Z,16.09
2023-05-18T06:26:39.778Z,16.11
2023-05-18T06:27:39.765Z,16.22
2023-05-18T06:28:39.753Z,16.23
2023-05-18T06:29:39.744Z,16.27
2023-05-18T06:30:39.725Z,16.26
2023-05-18T06:31:39.810Z,16.41
2023-05-18T06:32:39.740Z,16.59
2023-05-18T06:33:39.689Z,16.94
2023-05-18T06:34:39.686Z,17.30
2023-05-18T06:35:39.668Z,17.71
2023-05-18T06:36:39.650Z,17.67
2023-05-18T06:37:39.640Z,17.65
2023-05-18T06:38:39.653Z,17.56
2023-05-18T06:39:39.621Z,17.55
2023-05-18T06:40:39.598Z,17.59
2023-05-18T06:41:39.598Z,17.31
2023-05-18T06:42:39.579Z,17.44
2023-05-18T06:43:39.586Z,17.40
2023-05-18T06:44:39.544Z,16.87
2023-05-18T06:45:39.670Z,16.30
2023-05-18T06:46:39.604Z,16.37
2023-05-18T06:47:39.540Z,16.48
2023-05-18T06:48:39.496Z,16.62
2023-05-18T06:49:39.488Z,16.34
2023-05-18T06:50:39.465Z,16.23
2023-05-18T06:51:39.455Z,16.82
2023-05-18T06:52:39.439Z,17.14
2023-05-18T06:53:39.428Z,16.72
2023-05-18T06:54:39.451Z,16.75
2023-05-18T06:55:39.399Z,16.38
2023-05-18T06:56:39.382Z,16.23
2023-05-18T06:57:39.384Z,16.63
2023-05-18T06:58:39.358Z,17.14
2023-05-18T06:59:39.350Z,17.26
2023-05-18T07:00:39.332Z,17.52
2023-05-18T07:01:39.398Z,17.70
2023-05-18T07:02:39.317Z,17.98
2023-05-18T07:03:39.368Z,17.99
2023-05-18T07:04:39.278Z,18.35
2023-05-18T07:05:39.837Z,18.51
2023-05-18T07:06:39.266Z,18.92
2023-05-18T07:07:39.252Z,19.28
2023-05-18T07:08:39.226Z,19.45
2023-05-18T07:09:39.219Z,19.49
2023-05-18T07:10:39.232Z,19.00
2023-05-18T07:11:39.190Z,19.45
2023-05-18T07:12:39.175Z,19.36
2023-05-18T07:13:39.168Z,19.39
2023-05-18T07:14:39.154Z,19.50
2023-05-18T07:15:39.172Z,19.80
2023-05-18T07:16:39.194Z,19.92
2023-05-18T07:17:39.134Z,19.53
2023-05-18T07:18:39.160Z,19.38
2023-05-18T07:19:39.093Z,19.50
2023-05-18T07:20:39.075Z,19.46
2023-05-18T07:21:39.063Z,19.83
2023-05-18T07:22:39.048Z,20.10
2023-05-18T07:23:39.043Z,20.46
2023-05-18T07:24:39.020Z,20.93
2023-05-18T07:25:39.030Z,20.98
2023-05-18T07:26:39.029Z,21.28
2023-05-18T07:27:38.982Z,21.54
2023-05-18T07:28:38.976Z,21.59
2023-05-18T07:29:38.963Z,21.68
2023-05-18T07:30:38.955Z,21.72
2023-05-18T07:31:39.084Z,21.61
2023-05-18T07:32:38.934Z,21.50
2023-05-18T07:33:41.074Z,21.28
2023-05-18T07:34:38.897Z,21.40
2023-05-18T07:35:38.886Z,21.29
2023-05-18T07:36:38.879Z,21.31
2023-05-18T07:37:38.858Z,21.50
2023-05-18T07:38:38.848Z,21.12
2023-05-18T07:39:38.839Z,21.44
2023-05-18T07:40:38.815Z,21.53
2023-05-18T07:41:38.803Z,21.87
2023-05-18T07:42:38.826Z,21.98
2023-05-18T07:43:38.785Z,21.91
2023-05-18T07:44:38.768Z,22.20
2023-05-18T07:45:38.761Z,22.61
2023-05-18T07:46:38.757Z,22.76
2023-05-18T07:47:38.765Z,23.23
2023-05-18T07:48:40.818Z,22.92
2023-05-18T07:49:38.700Z,22.92
2023-05-18T07:50:38.696Z,22.19
2023-05-18T07:51:38.679Z,21.80
2023-05-18T07:52:38.668Z,21.35
2023-05-18T07:53:38.652Z,20.33
2023-05-18T07:54:38.650Z,20.79
2023-05-18T07:55:38.635Z,21.22
2023-05-18T07:56:38.619Z,21.15
2023-05-18T07:57:38.604Z,20.79
2023-05-18T07:58:38.638Z,20.88
2023-05-18T07:59:38.579Z,20.54
2023-05-18T08:00:38.574Z,19.98
2023-05-18T08:01:38.621Z,20.23
2023-05-18T08:02:38.624Z,20.33
2023-05-18T08:03:38.657Z,19.92
2023-05-18T08:04:38.520Z,20.17
2023-05-18T08:05:38.511Z,20.28
2023-05-18T08:06:38.504Z,20.21
2023-05-18T08:07:38.490Z,20.02
2023-05-18T08:08:38.473Z,20.21
2023-05-18T08:09:38.454Z,20.33
2023-05-18T08:10:38.446Z,20.60
2023-05-18T08:11:38.431Z,21.17
2023-05-18T08:12:38.427Z,21.69
2023-05-18T08:13:38.424Z,21.83
2023-05-18T08:14:38.418Z,22.54
2023-05-18T08:15:38.381Z,22.53
2023-05-18T08:16:38.375Z,22.36
2023-05-18T08:17:38.395Z,22.51
2023-05-18T08:18:38.409Z,21.50
2023-05-18T08:19:39.831Z,21.47
2023-05-18T08:20:38.316Z,21.77
2023-05-18T08:21:38.303Z,21.35
2023-05-18T08:22:38.292Z,20.94
2023-05-18T08:23:38.276Z,21.24
2023-05-18T08:24:38.268Z,21.46
2023-05-18T08:25:38.253Z,21.87
2023-05-18T08:26:38.242Z,22.04
2023-05-18T08:27:38.231Z,21.79
2023-05-18T08:28:38.213Z,21.56
2023-05-18T08:29:38.201Z,21.52
2023-05-18T08:30:38.324Z,21.67
2023-05-18T08:31:38.235Z,21.65
2023-05-18T08:32:38.249Z,22.02
2023-05-18T08:33:38.150Z,20.88
2023-05-18T08:34:38.155Z,21.11
2023-05-18T08:35:38.132Z,21.40
2023-05-18T08:36:38.111Z,22.06
2023-05-18T08:37:38.101Z,22.06
2023-05-18T08:38:38.091Z,21.54
2023-05-18T08:39:38.091Z,22.11
2023-05-18T08:40:38.067Z,22.73
2023-05-18T08:41:38.058Z,23.13
2023-05-18T08:42:49.441Z,23.31
2023-05-18T08:43:38.020Z,23.17
2023-05-18T08:44:38.013Z,23.16
2023-05-18T08:45:37.999Z,23.71
2023-05-18T08:46:38.028Z,23.69
2023-05-18T08:47:38.038Z,22.88
2023-05-18T08:48:38.067Z,22.50
2023-05-18T08:49:37.950Z,22.72
2023-05-18T08:50:37.937Z,22.53
2023-05-18T08:51:37.924Z,22.30
2023-05-18T08:52:37.918Z,22.72
2023-05-18T08:53:37.905Z,22.64
2023-05-18T08:54:37.894Z,22.97
2023-05-18T08:55:37.952Z,23.31
2023-05-18T08:56:37.867Z,23.65
2023-05-18T08:57:37.851Z,23.92
2023-05-18T08:58:37.862Z,24.24
2023-05-18T08:59:37.825Z,24.83
2023-05-18T09:00:37.815Z,24.77
2023-05-18T09:01:37.914Z,24.71
2023-05-18T09:02:37.941Z,24.60
2023-05-18T09:03:37.790Z,24.83
2023-05-18T09:04:37.799Z,24.55
2023-05-18T09:05:37.777Z,24.99
2023-05-18T09:06:37.744Z,25.17
2023-05-18T09:07:37.813Z,25.09
2023-05-18T09:08:37.720Z,24.77
2023-05-18T09:09:37.719Z,24.98
2023-05-18T09:10:37.698Z,25.46
2023-05-18T09:11:37.696Z,25.51
2023-05-18T09:12:37.669Z,25.05
2023-05-18T09:13:37.660Z,25.01
2023-05-18T09:14:37.654Z,24.24
2023-05-18T09:15:37.966Z,23.72
2023-05-18T09:16:37.681Z,23.41
2023-05-18T09:17:37.688Z,23.30
2023-05-18T09:18:37.698Z,23.13
2023-05-18T09:19:37.582Z,23.15
2023-05-18T09:20:37.574Z,23.87
2023-05-18T09:21:37.558Z,24.30
2023-05-18T09:22:37.552Z,24.31
2023-05-18T09:23:37.533Z,24.62
2023-05-18T09:24:37.525Z,24.25
2023-05-18T09:25:37.504Z,24.25
2023-05-18T09:26:37.497Z,24.02
2023-05-18T09:27:37.519Z,24.02
2023-05-18T09:28:37.475Z,23.87
2023-05-18T09:29:37.457Z,23.74
2023-05-18T09:30:37.447Z,23.92
2023-05-18T09:31:37.474Z,24.08
2023-05-18T09:32:37.499Z,24.60
2023-05-18T09:33:37.511Z,23.31
2023-05-18T09:34:37.429Z,21.84
2023-05-18T09:35:37.748Z,22.77
2023-05-18T09:36:37.375Z,22.83
2023-05-18T09:37:37.428Z,23.89
2023-05-18T09:38:37.348Z,24.55
2023-05-18T09:39:37.339Z,24.79
2023-05-18T09:40:37.358Z,25.09
2023-05-18T09:41:37.313Z,25.31
2023-05-18T09:42:37.322Z,24.99
2023-05-18T09:43:37.286Z,24.98
2023-05-18T09:44:37.272Z,24.75
2023-05-18T09:45:37.265Z,24.53
2023-05-18T09:46:37.338Z,24.49
2023-05-18T09:47:37.310Z,24.60
2023-05-18T09:48:37.228Z,24.57
2023-05-18T09:49:37.209Z,24.65
2023-05-18T09:50:37.245Z,25.35
2023-05-18T09:51:37.181Z,25.90
2023-05-18T09:52:37.175Z,26.47
2023-05-18T09:53:37.175Z,26.65
2023-05-18T09:54:37.149Z,26.20
2023-05-18T09:55:37.136Z,26.01
2023-05-18T09:57:37.184Z,24.62
2023-05-18T09:58:37.104Z,24.28
2023-05-18T09:59:37.128Z,24.64
2023-05-18T10:00:37.096Z,24.57
2023-05-18T10:01:37.062Z,24.75
2023-05-18T10:02:37.092Z,24.77
2023-05-18T10:03:37.059Z,24.60
2023-05-18T10:04:37.101Z,24.47
2023-05-18T10:05:37.209Z,24.45
2023-05-18T10:06:37.026Z,24.77
2023-05-18T10:07:37.025Z,24.84
2023-05-18T10:08:36.984Z,25.32
2023-05-18T10:09:36.967Z,25.35
2023-05-18T10:10:36.953Z,25.19
2023-05-18T10:11:36.935Z,25.13
2023-05-18T10:12:36.928Z,24.89
2023-05-18T10:13:36.913Z,24.76
2023-05-18T10:14:36.903Z,24.80
2023-05-18T10:15:36.881Z,24.76
2023-05-18T10:16:36.899Z,24.71
2023-05-18T10:17:37.161Z,25.42
2023-05-18T10:18:36.910Z,25.02
2023-05-18T10:19:36.847Z,25.38
2023-05-18T10:20:36.826Z,25.60
2023-05-18T10:21:36.815Z,25.31
2023-05-18T10:22:36.829Z,25.20
2023-05-18T10:23:36.795Z,25.52
2023-05-18T10:24:36.774Z,25.90
2023-05-18T10:25:36.758Z,25.87
2023-05-18T10:26:36.751Z,25.82
2023-05-18T10:27:36.736Z,25.73
2023-05-18T10:28:36.721Z,25.79
2023-05-18T10:29:36.716Z,26.16
2023-05-18T10:30:36.746Z,26.35
2023-05-18T10:31:36.820Z,26.51
2023-05-18T10:32:36.706Z,25.27
2023-05-18T10:33:36.702Z,25.37
2023-05-18T10:34:36.664Z,25.27
2023-05-18T10:35:36.640Z,25.27
2023-05-18T10:36:36.637Z,25.05
2023-05-18T10:37:36.614Z,24.20
2023-05-18T10:38:36.649Z,24.25
2023-05-18T10:39:36.596Z,24.60
2023-05-18T10:40:36.583Z,24.15
2023-05-18T10:41:36.570Z,24.43
2023-05-18T10:42:36.555Z,24.58
2023-05-18T10:43:36.567Z,24.99
2023-05-18T10:44:36.530Z,24.86
2023-05-18T10:45:36.516Z,25.02
2023-05-18T10:46:36.543Z,25.08
2023-05-18T10:47:36.623Z,24.80
2023-05-18T10:48:36.518Z,25.17
2023-05-18T10:49:36.467Z,25.55
2023-05-18T10:50:36.459Z,25.57
2023-05-18T10:51:36.442Z,25.65
2023-05-18T10:52:36.427Z,25.64
2023-05-18T10:53:36.578Z,25.17
2023-05-18T10:54:36.446Z,25.13
2023-05-18T10:55:36.404Z,25.80
2023-05-18T10:56:36.379Z,26.10
2023-05-18T10:57:36.363Z,26.07
2023-05-18T10:58:36.361Z,25.80
2023-05-18T10:59:36.340Z,25.52
2023-05-18T11:00:36.337Z,25.82
2023-05-18T11:01:36.339Z,26.06
2023-05-18T11:02:36.339Z,26.12
2023-05-18T11:03:36.300Z,25.58
2023-05-18T11:04:36.339Z,25.73
2023-05-18T11:05:36.340Z,26.32
2023-05-18T11:06:36.257Z,26.56
2023-05-18T11:07:36.240Z,26.80
2023-05-18T11:08:36.225Z,26.68
2023-05-18T11:09:36.217Z,25.17
2023-05-18T11:10:36.364Z,25.54
2023-05-18T11:11:36.190Z,25.69
2023-05-18T11:12:36.182Z,25.79
2023-05-18T11:13:36.167Z,25.99
2023-05-18T11:14:36.176Z,25.51
2023-05-18T11:15:36.141Z,25.46
2023-05-18T11:16:36.242Z,25.35
2023-05-18T11:17:36.200Z,25.58
2023-05-18T11:18:36.147Z,25.94
2023-05-18T11:19:36.092Z,26.17
2023-05-18T11:20:36.081Z,26.54
2023-05-18T11:21:36.332Z,26.79
2023-05-18T11:22:36.057Z,27.04
2023-05-18T11:23:36.038Z,27.39
2023-05-18T11:24:36.034Z,27.18
2023-05-18T11:25:36.021Z,27.03
2023-05-18T11:26:36.036Z,27.12
2023-05-18T11:27:35.993Z,26.95
2023-05-18T11:28:35.985Z,27.34
2023-05-18T11:29:36.012Z,27.24
2023-05-18T11:30:36.341Z,26.69
2023-05-18T11:31:35.987Z,26.64
2023-05-18T11:32:36.081Z,25.82
2023-05-18T11:33:35.968Z,26.09
2023-05-18T11:34:38.235Z,26.17
2023-05-18T11:35:35.905Z,26.28
2023-05-18T11:36:35.884Z,26.14
2023-05-18T11:37:35.874Z,25.67
2023-05-18T11:38:35.866Z,26.12
2023-05-18T11:39:37.705Z,26.59
2023-05-18T11:40:35.839Z,26.68
2023-05-18T11:41:35.823Z,27.10
2023-05-18T11:42:35.840Z,27.46
2023-05-18T11:43:35.803Z,27.58
2023-05-18T11:44:35.787Z,28.02
2023-05-18T11:45:35.775Z,27.96
2023-05-18T11:46:35.763Z,27.93
2023-05-18T11:47:35.764Z,27.50
2023-05-18T11:48:35.768Z,28.44
2023-05-18T11:49:35.725Z,28.11
2023-05-18T11:50:35.716Z,28.33
2023-05-18T11:51:35.709Z,28.16
2023-05-18T11:52:35.691Z,28.13
2023-05-18T11:53:35.682Z,27.74
2023-05-18T11:54:35.667Z,26.29
2023-05-18T11:55:35.657Z,25.85
2023-05-18T11:56:35.648Z,26.39
2023-05-18T11:57:35.638Z,26.81
2023-05-18T11:58:35.648Z,27.68
2023-05-18T11:59:35.604Z,27.29
2023-05-18T12:00:35.590Z,26.38
2023-05-18T12:01:35.580Z,25.70
2023-05-18T12:02:35.690Z,25.46
2023-05-18T12:03:35.622Z,25.85
2023-05-18T12:04:35.649Z,26.39
2023-05-18T12:05:35.531Z,26.64
2023-05-18T12:06:35.519Z,27.10
2023-05-18T12:07:35.514Z,27.22
2023-05-18T12:08:35.510Z,26.64
2023-05-18T12:09:35.479Z,26.84
2023-05-18T12:10:35.465Z,26.42
2023-05-18T12:11:35.456Z,26.62
2023-05-18T12:12:35.436Z,26.51
2023-05-18T12:13:35.434Z,26.95
2023-05-18T12:14:35.453Z,26.99
2023-05-18T12:15:35.401Z,27.41
2023-05-18T12:16:35.431Z,27.91
2023-05-18T12:17:35.410Z,27.80
2023-05-18T12:18:35.410Z,27.50
2023-05-18T12:19:35.352Z,26.09
2023-05-18T12:20:35.348Z,25.67
2023-05-18T12:21:35.330Z,25.91
2023-05-18T12:22:35.341Z,25.99
2023-05-18T12:23:35.303Z,25.77
2023-05-18T12:24:35.291Z,25.80
2023-05-18T12:25:35.359Z,26.57
2023-05-18T12:26:35.263Z,26.97
2023-05-18T12:27:35.256Z,27.39
2023-05-18T12:28:35.240Z,28.08
2023-05-18T12:29:35.238Z,27.37
2023-05-18T12:30:36.161Z,27.66
2023-05-18T12:31:35.338Z,27.68
2023-05-18T12:32:35.217Z,26.83
2023-05-18T12:33:35.184Z,26.44
2023-05-18T12:34:35.177Z,26.29
2023-05-18T12:35:35.491Z,26.07
2023-05-18T12:36:35.147Z,25.98
2023-05-18T12:37:44.839Z,26.12
2023-05-18T12:38:35.124Z,25.97
2023-05-18T12:39:35.118Z,26.01
2023-05-18T12:40:35.100Z,25.70
2023-05-18T12:41:35.092Z,25.94
2023-05-18T12:42:35.075Z,26.39
2023-05-18T12:43:35.064Z,26.07
2023-05-18T12:44:35.050Z,25.67
2023-05-18T12:45:35.287Z,26.27
2023-05-18T12:46:35.091Z,26.59
2023-05-18T12:47:35.037Z,26.72
2023-05-18T12:48:35.008Z,27.36
2023-05-18T12:49:34.994Z,27.71
2023-05-18T12:50:34.995Z,27.24
2023-05-18T12:51:34.974Z,26.53
2023-05-18T12:52:38.103Z,26.65
2023-05-18T12:53:34.943Z,26.72
2023-05-18T12:54:34.932Z,26.25
2023-05-18T12:55:35.122Z,25.91
2023-05-18T12:56:34.907Z,26.28
2023-05-18T12:57:34.895Z,27.10
2023-05-18T12:58:34.890Z,27.65
2023-05-18T12:59:34.865Z,27.78
2023-05-18T13:00:34.871Z,27.89
2023-05-18T13:01:34.894Z,28.17
2023-05-18T13:02:34.971Z,28.24
2023-05-18T13:03:34.911Z,27.95
2023-05-18T13:04:34.826Z,27.24
2023-05-18T13:05:34.810Z,26.79
2023-05-18T13:06:34.785Z,26.43